Goochland, Virginia
Current Conditions -  °F | °C
As of 2:15 PM on Sunday 28 Dec 2014 (Local Time) from K7W4 Reporting Station
Overcast Overcast  
Wind Chill: 55°   Ceiling: 11000
Heat Index: 55°   Visibility: 10mi
Dew Point: 46°   Wind: 0mph
Humidity: 73%   Direction: NA
Pressure: 29.94"   Gusts: NA
Location:  37.68°N, 77.88°W
Report Text: K7W4 281915Z AUTO 00000KT 10SM SCT038 SCT075 OVC110 13/08 A2994 RMK AO1 T01280080
Loading
Personal Weather Stations






























Interactive Weather Map New forecast layout! Learn more

10-Day Weather Forecast

Advertisements
Track Severe Weather on mobile